createdAt,value
2019-01-30T00:02:08.464Z,28.25
2019-01-30T00:04:38.844Z,26.90
2019-01-30T00:07:09.336Z,27.70
2019-01-30T00:09:39.734Z,28.30
2019-01-30T00:12:10.179Z,28.90
2019-01-30T00:14:40.601Z,29.53
2019-01-30T00:17:10.876Z,25.30
2019-01-30T00:19:41.261Z,29.17
2019-01-30T00:22:11.601Z,29.05
2019-01-30T00:24:41.837Z,28.87
2019-01-30T00:27:12.167Z,29.25
2019-01-30T00:29:42.524Z,26.73
2019-01-30T00:32:15.065Z,28.00
2019-01-30T00:34:45.399Z,25.10
2019-01-30T00:37:15.615Z,26.53
2019-01-30T00:39:45.835Z,29.90
2019-01-30T00:42:16.130Z,27.07
2019-01-30T00:44:46.388Z,28.37
2019-01-30T00:47:16.652Z,23.47
2019-01-30T00:49:47.021Z,27.13
2019-01-30T00:52:17.348Z,22.67
2019-01-30T00:54:47.701Z,26.57
2019-01-30T00:57:17.922Z,26.95
2019-01-30T00:59:48.289Z,32.90
2019-01-30T01:02:18.615Z,26.55
2019-01-30T01:04:49.013Z,25.43
2019-01-30T01:07:19.254Z,26.17
2019-01-30T01:09:49.569Z,24.20
2019-01-30T01:12:19.950Z,25.20
2019-01-30T01:14:50.470Z,23.17
2019-01-30T01:17:20.770Z,23.07
2019-01-30T01:19:50.990Z,22.00
2019-01-30T01:22:21.772Z,27.70
2019-01-30T01:24:52.115Z,21.70
2019-01-30T01:27:22.399Z,20.23
2019-01-30T01:29:52.711Z,21.20
2019-01-30T01:32:22.927Z,24.30
2019-01-30T01:34:53.217Z,20.40
2019-01-30T01:37:23.509Z,22.62
2019-01-30T01:40:02.339Z,18.90
2019-01-30T01:42:32.707Z,23.03
2019-01-30T01:45:03.062Z,20.53
2019-01-30T01:47:33.483Z,20.07
2019-01-30T01:50:04.106Z,22.33
2019-01-30T01:52:34.374Z,19.50
2019-01-30T01:55:05.326Z,18.37
2019-01-30T01:57:35.642Z,20.03
2019-01-30T02:00:08.799Z,25.43
2019-01-30T02:02:39.091Z,22.13
2019-01-30T02:05:12.729Z,22.20
2019-01-30T02:07:43.024Z,19.20
2019-01-30T02:10:16.821Z,19.42
2019-01-30T02:12:47.296Z,19.53
2019-01-30T02:15:20.397Z,25.00
2019-01-30T02:17:51.191Z,20.73
2019-01-30T02:20:39.537Z,21.25
2019-01-30T02:23:09.822Z,21.80
2019-01-30T02:25:40.583Z,19.70
2019-01-30T02:28:10.863Z,21.17
2019-01-30T02:30:47.570Z,21.10
2019-01-30T02:33:13.166Z,20.62
2019-01-30T02:35:43.550Z,23.23
2019-01-30T02:38:13.842Z,22.37
2019-01-30T02:40:52.167Z,20.03
2019-01-30T02:43:22.428Z,24.60
2019-01-30T02:45:52.716Z,24.97
2019-01-30T02:48:23.060Z,24.45
2019-01-30T02:50:53.468Z,24.73
2019-01-30T02:53:23.730Z,29.30
2019-01-30T02:55:54.042Z,22.03
2019-01-30T02:58:24.323Z,22.47
2019-01-30T03:00:59.408Z,25.33
2019-01-30T03:03:26.831Z,23.67
2019-01-30T03:05:57.260Z,21.07
2019-01-30T03:08:27.638Z,22.77
2019-01-30T03:10:57.896Z,25.80
2019-01-30T03:13:28.255Z,26.47
2019-01-30T03:15:58.573Z,25.87
2019-01-30T03:18:30.208Z,24.70
2019-01-30T03:21:00.551Z,25.33
2019-01-30T03:23:31.080Z,26.10
2019-01-30T03:26:03.174Z,23.43
2019-01-30T03:28:33.413Z,26.73
2019-01-30T03:31:16.842Z,28.03
2019-01-30T03:33:38.781Z,28.13
2019-01-30T03:36:09.419Z,27.47
2019-01-30T03:38:39.640Z,26.93
2019-01-30T03:41:10.053Z,33.48
2019-01-30T03:43:40.529Z,29.77
2019-01-30T03:46:10.984Z,26.77
2019-01-30T03:48:41.251Z,29.13
2019-01-30T03:51:11.601Z,29.07
2019-01-30T03:53:41.951Z,29.37
2019-01-30T03:56:12.243Z,28.42
2019-01-30T03:58:42.570Z,25.10
2019-01-30T04:01:12.850Z,30.70
2019-01-30T04:03:43.262Z,28.70
2019-01-30T04:06:13.576Z,31.73
2019-01-30T04:08:43.947Z,32.33
2019-01-30T04:11:14.273Z,31.03
2019-01-30T04:13:44.540Z,34.93
2019-01-30T04:16:14.881Z,33.83
2019-01-30T04:18:45.174Z,30.37
2019-01-30T04:21:15.641Z,33.13
2019-01-30T04:23:49.071Z,36.88
2019-01-30T04:26:19.299Z,32.83
2019-01-30T04:28:49.712Z,34.23
2019-01-30T04:31:20.086Z,31.10
2019-01-30T04:33:50.343Z,36.23
2019-01-30T04:36:20.635Z,34.48
2019-01-30T04:38:51.088Z,38.70
2019-01-30T04:41:21.348Z,36.63
2019-01-30T04:43:51.683Z,34.97
2019-01-30T04:46:21.923Z,35.95
2019-01-30T04:48:52.228Z,38.67
2019-01-30T04:51:22.603Z,33.55
2019-01-30T04:53:52.896Z,35.20
2019-01-30T04:56:23.213Z,38.25
2019-01-30T04:58:54.776Z,33.27
2019-01-30T05:01:25.025Z,38.20
2019-01-30T05:03:55.340Z,35.07
2019-01-30T05:06:25.739Z,37.53
2019-01-30T05:08:56.258Z,37.00
2019-01-30T05:11:26.652Z,40.33
2019-01-30T05:13:56.879Z,38.50
2019-01-30T05:16:27.242Z,33.43
2019-01-30T05:18:57.521Z,37.27
2019-01-30T05:21:27.885Z,34.67
2019-01-30T05:23:58.213Z,36.80
2019-01-30T05:26:28.554Z,39.43
2019-01-30T05:28:58.858Z,36.00
2019-01-30T05:31:29.239Z,42.73
2019-01-30T05:33:59.503Z,37.40
2019-01-30T05:36:29.853Z,36.20
2019-01-30T05:39:00.130Z,39.07
2019-01-30T05:41:30.519Z,41.43
2019-01-30T05:44:00.764Z,38.20
2019-01-30T05:46:31.123Z,36.30
2019-01-30T05:49:01.438Z,39.60
2019-01-30T05:51:31.793Z,37.13
2019-01-30T05:54:02.097Z,40.00
2019-01-30T05:56:32.407Z,37.93
2019-01-30T05:59:02.846Z,36.05
2019-01-30T06:01:33.503Z,36.97
2019-01-30T06:04:03.986Z,38.08
2019-01-30T06:06:34.536Z,43.37
2019-01-30T06:09:06.565Z,35.20
2019-01-30T06:11:37.035Z,35.33
2019-01-30T06:14:07.539Z,35.20
2019-01-30T06:16:38.042Z,35.73
2019-01-30T06:19:08.864Z,36.88
2019-01-30T06:21:41.325Z,32.53
2019-01-30T06:24:12.075Z,37.35
2019-01-30T06:26:42.837Z,32.90
2019-01-30T06:29:13.411Z,36.13
2019-01-30T06:31:44.187Z,38.97
2019-01-30T06:34:14.737Z,32.93
2019-01-30T06:36:45.207Z,38.53
2019-01-30T06:39:15.790Z,35.53
2019-01-30T06:41:46.385Z,36.60
2019-01-30T06:44:16.899Z,37.13
2019-01-30T06:46:47.477Z,34.93
2019-01-30T06:49:18.058Z,29.40
2019-01-30T06:51:48.534Z,32.43
2019-01-30T06:54:19.050Z,36.40
2019-01-30T06:56:49.562Z,32.70
2019-01-30T06:59:20.002Z,29.93
2019-01-30T07:01:50.639Z,29.50
2019-01-30T07:04:21.203Z,28.00
2019-01-30T07:06:55.302Z,33.00
2019-01-30T07:09:25.807Z,31.80
2019-01-30T07:11:56.191Z,26.60
2019-01-30T07:14:26.680Z,29.50
2019-01-30T07:16:57.183Z,27.90
2019-01-30T07:19:27.781Z,31.90
2019-01-30T07:21:58.310Z,32.33
2019-01-30T07:24:28.651Z,29.40
2019-01-30T07:26:58.970Z,28.97
2019-01-30T07:29:29.342Z,27.87
2019-01-30T07:31:59.667Z,29.70
2019-01-30T07:34:29.868Z,28.80
2019-01-30T07:37:00.198Z,25.13
2019-01-30T07:39:30.540Z,26.80
2019-01-30T07:42:00.885Z,25.60
2019-01-30T07:44:31.247Z,28.20
2019-01-30T07:47:01.553Z,25.37
2019-01-30T07:49:31.710Z,26.30
2019-01-30T07:52:02.003Z,22.93
2019-01-30T07:54:32.238Z,23.63
2019-01-30T07:57:05.281Z,27.23
2019-01-30T07:59:35.623Z,25.13
2019-01-30T08:02:06.880Z,27.20
2019-01-30T08:04:39.746Z,27.93
2019-01-30T08:07:10.038Z,23.53
2019-01-30T08:09:41.827Z,23.33
2019-01-30T08:12:12.700Z,27.17
2019-01-30T08:14:43.058Z,23.27
2019-01-30T08:17:13.433Z,24.23
2019-01-30T08:19:43.704Z,24.77
2019-01-30T08:22:14.078Z,21.23
2019-01-30T08:24:44.858Z,23.07
2019-01-30T08:27:15.590Z,22.07
2019-01-30T08:29:46.383Z,22.03
2019-01-30T08:32:16.916Z,24.20
2019-01-30T08:34:47.360Z,24.03
2019-01-30T08:37:17.630Z,24.73
2019-01-30T08:39:49.603Z,31.33
2019-01-30T08:42:20.049Z,32.13
2019-01-30T08:44:50.367Z,28.40
2019-01-30T08:47:20.690Z,25.23
2019-01-30T08:49:51.093Z,25.90
2019-01-30T08:52:21.489Z,28.87
2019-01-30T08:54:51.812Z,24.53
2019-01-30T08:57:22.216Z,22.13
2019-01-30T08:59:52.665Z,21.27
2019-01-30T09:02:23.114Z,21.48
2019-01-30T09:04:55.567Z,19.20
2019-01-30T09:07:25.805Z,23.23
2019-01-30T09:09:56.305Z,21.97
2019-01-30T09:12:26.816Z,22.60
2019-01-30T09:14:57.613Z,24.33
2019-01-30T09:17:29.041Z,20.47
2019-01-30T09:20:01.982Z,21.73
2019-01-30T09:22:32.446Z,23.07
2019-01-30T09:25:05.060Z,22.87
2019-01-30T09:27:35.507Z,19.52
2019-01-30T09:30:10.044Z,20.27
2019-01-30T09:32:40.419Z,19.73
2019-01-30T09:35:18.701Z,19.57
2019-01-30T09:37:50.908Z,21.97
2019-01-30T09:40:21.398Z,19.87
2019-01-30T09:42:55.187Z,20.70
2019-01-30T09:45:26.444Z,21.70
2019-01-30T09:47:56.951Z,23.13
2019-01-30T09:50:27.317Z,24.83
2019-01-30T09:53:01.082Z,20.10
2019-01-30T09:55:31.526Z,21.97
2019-01-30T09:58:02.357Z,26.12
2019-01-30T10:00:37.827Z,18.20
2019-01-30T10:03:11.720Z,21.03
2019-01-30T10:05:42.154Z,21.07
2019-01-30T10:08:12.490Z,20.03
2019-01-30T10:10:42.883Z,18.80
2019-01-30T10:13:13.405Z,19.20
2019-01-30T10:15:45.294Z,17.23
2019-01-30T10:18:16.716Z,18.77
2019-01-30T10:20:48.563Z,16.10
2019-01-30T10:23:20.389Z,20.20
2019-01-30T10:25:50.773Z,20.87
2019-01-30T10:28:21.828Z,16.43
2019-01-30T10:30:54.301Z,16.90
2019-01-30T10:33:27.637Z,15.83
2019-01-30T10:36:00.931Z,15.27
2019-01-30T10:38:32.674Z,17.07
2019-01-30T10:41:06.726Z,17.03
2019-01-30T10:43:38.766Z,13.60
2019-01-30T10:46:12.010Z,16.70
2019-01-30T10:48:42.258Z,16.27
2019-01-30T10:51:12.558Z,14.98
2019-01-30T10:53:43.024Z,15.00
2019-01-30T10:56:13.502Z,14.85
2019-01-30T10:58:45.754Z,15.07
2019-01-30T11:01:16.301Z,14.43
2019-01-30T11:03:57.070Z,13.57
2019-01-30T11:06:23.886Z,19.37
2019-01-30T11:08:54.525Z,15.57
2019-01-30T11:11:26.943Z,13.80
2019-01-30T11:13:58.146Z,16.40
2019-01-30T11:16:35.264Z,13.20
2019-01-30T11:19:09.321Z,15.97
2019-01-30T11:21:44.547Z,13.57
2019-01-30T11:24:16.217Z,14.87
2019-01-30T11:26:49.898Z,15.70
2019-01-30T11:29:21.451Z,13.28
2019-01-30T11:31:51.967Z,12.45
2019-01-30T11:34:22.515Z,15.57
2019-01-30T11:36:53.146Z,14.77
2019-01-30T11:39:26.327Z,13.65
2019-01-30T11:41:57.728Z,14.83
2019-01-30T11:44:28.732Z,13.08
2019-01-30T11:46:59.257Z,13.23
2019-01-30T11:49:30.373Z,14.47
2019-01-30T11:52:07.297Z,16.32
2019-01-30T11:54:38.848Z,14.00
2019-01-30T11:57:08.843Z,15.03
2019-01-30T11:59:57.962Z,14.43
2019-01-30T12:02:14.581Z,15.30
2019-01-30T12:04:45.536Z,14.90
2019-01-30T12:07:16.059Z,15.93
2019-01-30T12:09:47.470Z,15.93
2019-01-30T12:12:22.576Z,15.50
2019-01-30T12:14:53.046Z,15.70
2019-01-30T12:17:23.499Z,14.17
2019-01-30T12:19:54.085Z,13.77
2019-01-30T12:22:24.544Z,16.55
2019-01-30T12:24:55.069Z,15.18
2019-01-30T12:27:25.516Z,16.73
2019-01-30T12:29:55.926Z,14.10
2019-01-30T12:32:27.659Z,15.60
2019-01-30T12:35:00.828Z,15.90
2019-01-30T12:37:34.511Z,14.50
2019-01-30T12:40:07.611Z,16.87
2019-01-30T12:42:38.073Z,15.50
2019-01-30T12:45:11.667Z,15.53
2019-01-30T12:47:45.002Z,17.35
2019-01-30T12:50:15.661Z,14.18
2019-01-30T12:52:46.294Z,15.53
2019-01-30T12:55:18.321Z,17.82
2019-01-30T12:57:55.770Z,17.07
2019-01-30T13:00:31.799Z,16.67
2019-01-30T13:03:07.058Z,19.17
2019-01-30T13:05:38.334Z,15.40
2019-01-30T13:08:09.141Z,18.03
2019-01-30T13:10:39.847Z,18.47
2019-01-30T13:13:13.983Z,17.90
2019-01-30T13:15:48.650Z,17.47
2019-01-30T13:18:20.715Z,16.40
2019-01-30T13:20:55.041Z,17.60
2019-01-30T13:23:25.650Z,16.10
2019-01-30T13:25:59.275Z,18.57
2019-01-30T13:28:29.828Z,18.50
2019-01-30T13:31:03.206Z,19.57
2019-01-30T13:33:33.710Z,16.37
2019-01-30T13:36:04.499Z,17.87
2019-01-30T13:38:45.152Z,19.13
2019-01-30T13:41:15.579Z,18.73
2019-01-30T13:43:47.228Z,18.37
2019-01-30T13:46:17.838Z,19.07
2019-01-30T13:48:54.813Z,18.37
2019-01-30T13:51:26.386Z,20.23
2019-01-30T13:54:13.225Z,18.37
2019-01-30T13:57:14.327Z,18.20
2019-01-30T13:59:45.252Z,19.10
2019-01-30T14:02:15.883Z,20.07
2019-01-30T14:04:59.141Z,19.00
2019-01-30T14:07:21.170Z,18.87
2019-01-30T14:09:51.921Z,19.17
2019-01-30T14:12:34.247Z,18.65
2019-01-30T14:15:09.461Z,18.43
2019-01-30T14:17:40.127Z,21.00
2019-01-30T14:20:12.199Z,21.03
2019-01-30T14:22:43.064Z,19.93
2019-01-30T14:25:16.654Z,20.37
2019-01-30T14:27:47.271Z,20.85
2019-01-30T14:30:21.949Z,22.23
2019-01-30T14:32:57.706Z,22.00
2019-01-30T14:35:31.174Z,19.17
2019-01-30T14:38:06.321Z,21.20
2019-01-30T14:40:40.095Z,22.35
2019-01-30T14:43:12.497Z,22.17
2019-01-30T14:45:50.946Z,20.32
2019-01-30T14:48:24.660Z,21.13
2019-01-30T14:50:55.643Z,21.87
2019-01-30T14:53:31.621Z,24.70
2019-01-30T14:56:04.991Z,22.43
2019-01-30T14:58:42.322Z,21.27
2019-01-30T15:01:13.440Z,19.17
2019-01-30T15:03:50.308Z,23.27
2019-01-30T15:06:28.778Z,24.95
2019-01-30T15:08:59.573Z,22.70
2019-01-30T15:11:30.280Z,24.20
2019-01-30T15:14:15.666Z,23.80
2019-01-30T15:16:59.047Z,21.15
2019-01-30T15:19:32.613Z,23.60
2019-01-30T15:22:04.638Z,25.77
2019-01-30T15:24:37.932Z,21.13
2019-01-30T15:27:11.146Z,25.37
2019-01-30T15:29:45.130Z,20.40
2019-01-30T15:32:15.940Z,22.40
2019-01-30T15:34:46.594Z,21.47
2019-01-30T15:37:21.753Z,25.05
2019-01-30T15:39:52.812Z,23.47
2019-01-30T15:42:27.925Z,26.63
2019-01-30T15:45:01.797Z,22.07
2019-01-30T15:47:38.846Z,24.57
2019-01-30T15:50:23.343Z,25.00
2019-01-30T15:52:56.027Z,25.53
2019-01-30T15:55:36.929Z,19.53
2019-01-30T15:58:10.139Z,24.33
2019-01-30T16:00:59.070Z,25.57
2019-01-30T16:03:36.517Z,25.57
2019-01-30T16:06:10.723Z,27.37
2019-01-30T16:08:51.054Z,25.43
2019-01-30T16:11:30.800Z,25.93
2019-01-30T16:14:13.603Z,27.57
2019-01-30T16:16:44.380Z,28.97
2019-01-30T16:19:16.872Z,26.33
2019-01-30T16:21:48.190Z,27.23
2019-01-30T16:24:22.007Z,27.43
2019-01-30T16:26:52.566Z,29.30
2019-01-30T16:29:32.124Z,27.15
2019-01-30T16:32:21.916Z,29.53
2019-01-30T16:34:57.234Z,33.30
2019-01-30T16:37:27.988Z,28.37
2019-01-30T16:40:03.316Z,31.33
2019-01-30T16:42:41.455Z,30.23
2019-01-30T16:45:27.900Z,34.20
2019-01-30T16:48:55.793Z,32.67
2019-01-30T16:52:36.977Z,34.50
2019-01-30T16:55:16.422Z,32.48
2019-01-30T16:57:59.982Z,31.93
2019-01-30T17:00:46.661Z,34.23
2019-01-30T17:03:19.525Z,32.98
2019-01-30T17:05:54.361Z,36.47
2019-01-30T17:08:32.504Z,37.25
2019-01-30T17:11:36.306Z,35.47
2019-01-30T17:14:12.583Z,39.50
2019-01-30T17:16:43.122Z,38.63
2019-01-30T17:19:13.920Z,42.67
2019-01-30T17:21:52.408Z,37.40
2019-01-30T17:24:25.872Z,38.60
2019-01-30T17:26:59.891Z,39.55
2019-01-30T17:29:31.427Z,39.10
2019-01-30T17:32:06.420Z,43.95
2019-01-30T17:34:42.131Z,35.13
2019-01-30T17:37:20.190Z,41.73
2019-01-30T17:39:51.019Z,45.47
2019-01-30T17:42:22.795Z,48.90
2019-01-30T17:44:53.625Z,45.73
2019-01-30T17:47:26.893Z,47.93
2019-01-30T17:50:01.315Z,41.00
2019-01-30T17:52:33.629Z,40.57
2019-01-30T17:55:04.590Z,48.77
2019-01-30T17:57:35.293Z,45.67
2019-01-30T18:00:37.955Z,48.20
2019-01-30T18:03:08.510Z,47.87
2019-01-30T18:05:40.470Z,49.87
2019-01-30T18:08:11.097Z,47.97
2019-01-30T18:10:41.504Z,49.00
2019-01-30T18:13:11.953Z,45.12
2019-01-30T18:15:43.946Z,50.05
2019-01-30T18:18:14.261Z,48.27
2019-01-30T18:20:44.784Z,52.20
2019-01-30T18:23:15.247Z,51.92
2019-01-30T18:25:46.288Z,53.03
2019-01-30T18:28:16.706Z,56.23
2019-01-30T18:30:50.036Z,58.10
2019-01-30T18:33:21.164Z,48.20
2019-01-30T18:35:51.647Z,51.20
2019-01-30T18:38:21.992Z,48.47
2019-01-30T18:40:52.404Z,52.13
2019-01-30T18:43:22.693Z,53.73
2019-01-30T18:45:53.097Z,55.80
2019-01-30T18:48:24.641Z,60.53
2019-01-30T18:50:56.959Z,59.23
2019-01-30T18:53:27.386Z,51.87
2019-01-30T18:56:03.490Z,67.32
2019-01-30T18:58:34.267Z,60.27
2019-01-30T19:01:06.930Z,60.07
2019-01-30T19:03:37.896Z,67.10
2019-01-30T19:06:08.748Z,71.05
2019-01-30T19:08:41.298Z,60.23
2019-01-30T19:11:12.162Z,59.08
2019-01-30T19:13:43.072Z,58.20
2019-01-30T19:16:14.118Z,62.73
2019-01-30T19:18:44.967Z,62.60
2019-01-30T19:21:16.255Z,69.87
2019-01-30T19:23:46.972Z,69.57
2019-01-30T19:26:17.995Z,74.87
2019-01-30T19:28:49.105Z,70.90
2019-01-30T19:31:20.306Z,73.87
2019-01-30T19:33:54.060Z,76.40
2019-01-30T19:36:25.179Z,67.12
2019-01-30T19:38:55.939Z,76.23
2019-01-30T19:41:26.577Z,73.43
2019-01-30T19:43:57.212Z,72.20
2019-01-30T19:46:27.910Z,66.97
2019-01-30T19:48:59.046Z,79.23
2019-01-30T19:51:30.183Z,66.00
2019-01-30T19:54:02.520Z,68.83
2019-01-30T19:56:33.408Z,71.30
2019-01-30T19:59:04.127Z,76.20
2019-01-30T20:01:36.171Z,78.43
2019-01-30T20:04:07.881Z,71.20
2019-01-30T20:06:39.226Z,84.77
2019-01-30T20:09:18.553Z,72.23
2019-01-30T20:11:50.567Z,89.73
2019-01-30T20:14:21.130Z,66.40
2019-01-30T20:16:52.021Z,73.50
2019-01-30T20:19:22.941Z,69.87
2019-01-30T20:22:00.637Z,92.73
2019-01-30T20:24:31.290Z,83.77
2019-01-30T20:27:04.526Z,86.67
2019-01-30T20:29:35.247Z,86.97
2019-01-30T20:32:06.318Z,87.57
2019-01-30T20:34:37.180Z,78.73
2019-01-30T20:37:07.937Z,82.87
2019-01-30T20:39:38.800Z,87.37
2019-01-30T20:42:09.769Z,81.03
2019-01-30T20:44:40.520Z,86.13
2019-01-30T20:47:11.626Z,83.70
2019-01-30T20:49:42.350Z,85.33
2019-01-30T20:52:15.490Z,91.57
2019-01-30T20:54:46.305Z,101.73
2019-01-30T20:57:18.612Z,97.13
2019-01-30T20:59:49.445Z,76.27
2019-01-30T21:02:20.302Z,102.27
2019-01-30T21:04:51.090Z,86.10
2019-01-30T21:07:22.008Z,95.05
2019-01-30T21:09:52.663Z,83.33
2019-01-30T21:12:23.558Z,94.73
2019-01-30T21:14:54.366Z,97.40
2019-01-30T21:17:27.897Z,79.77
2019-01-30T21:19:58.779Z,99.73
2019-01-30T21:22:32.264Z,96.63
2019-01-30T21:25:03.119Z,104.53
2019-01-30T21:27:34.044Z,97.17
2019-01-30T21:30:06.097Z,88.20
2019-01-30T21:32:40.470Z,95.57
2019-01-30T21:35:11.640Z,100.73
2019-01-30T21:37:48.952Z,100.87
2019-01-30T21:40:20.490Z,92.83
2019-01-30T21:42:51.456Z,89.10
2019-01-30T21:45:24.547Z,87.37
2019-01-30T21:47:55.226Z,80.83
2019-01-30T21:50:25.792Z,85.80
2019-01-30T21:52:56.454Z,95.87
2019-01-30T21:55:34.396Z,84.85
2019-01-30T21:58:08.234Z,91.50
2019-01-30T22:00:39.096Z,109.80
2019-01-30T22:03:09.873Z,98.07
2019-01-30T22:05:41.452Z,107.97
2019-01-30T22:08:12.197Z,89.05
2019-01-30T22:10:43.188Z,94.77
2019-01-30T22:13:13.791Z,97.50
2019-01-30T22:15:44.483Z,82.80
2019-01-30T22:18:14.809Z,87.62
2019-01-30T22:20:45.285Z,82.83
2019-01-30T22:23:17.572Z,79.42
2019-01-30T22:25:49.494Z,76.83
2019-01-30T22:28:20.160Z,84.80
2019-01-30T22:30:50.536Z,87.70
2019-01-30T22:33:21.003Z,75.80
2019-01-30T22:35:51.433Z,74.27
2019-01-30T22:38:21.927Z,80.73
2019-01-30T22:40:52.223Z,70.62
2019-01-30T22:43:25.001Z,76.87
2019-01-30T22:45:56.465Z,82.77
2019-01-30T22:48:26.899Z,81.97
2019-01-30T22:50:58.766Z,73.20
2019-01-30T22:53:29.302Z,72.43
2019-01-30T22:55:59.678Z,94.03
2019-01-30T22:58:30.366Z,91.33
2019-01-30T23:01:52.855Z,79.32
2019-01-30T23:05:37.724Z,88.67
2019-01-30T23:08:44.590Z,80.23
2019-01-30T23:12:13.299Z,85.75
2019-01-30T23:15:00.721Z,86.87
2019-01-30T23:18:37.848Z,69.33
2019-01-30T23:21:18.989Z,75.87
2019-01-30T23:24:47.855Z,73.60
2019-01-30T23:27:34.870Z,80.30
2019-01-30T23:30:45.165Z,72.23
2019-01-30T23:33:44.246Z,82.33
2019-01-30T23:37:10.783Z,91.20
2019-01-30T23:40:23.973Z,100.33
2019-01-30T23:43:54.257Z,86.57
2019-01-30T23:46:57.316Z,98.40
2019-01-30T23:50:38.629Z,102.20
2019-01-30T23:54:06.116Z,96.70
2019-01-30T23:57:32.797Z,105.07
